sensor_id;sensor_type;location;lat;lon;timestamp;pressure;altitude;pressure_sealevel;temperature;humidity
61039;BME280;46919;45.816;3.104;2024-03-08T00:01:59;96936.19;;;2.76;82.73
61039;BME280;46919;45.816;3.104;2024-03-08T00:04:25;96933.72;;;2.74;82.79
61039;BME280;46919;45.816;3.104;2024-03-08T00:06:50;96937.25;;;2.75;83.48
61039;BME280;46919;45.816;3.104;2024-03-08T00:09:16;96923.91;;;2.75;83.95
61039;BME280;46919;45.816;3.104;2024-03-08T00:11:41;96922.06;;;2.75;83.23
61039;BME280;46919;45.816;3.104;2024-03-08T00:14:06;96916.72;;;2.75;83.27
61039;BME280;46919;45.816;3.104;2024-03-08T00:16:33;96920.75;;;2.64;84.44
61039;BME280;46919;45.816;3.104;2024-03-08T00:18:59;96913.56;;;2.58;84.40
61039;BME280;46919;45.816;3.104;2024-03-08T00:21:24;96900.00;;;2.60;84.13
61039;BME280;46919;45.816;3.104;2024-03-08T00:23:50;96903.72;;;2.59;84.31
61039;BME280;46919;45.816;3.104;2024-03-08T00:26:15;96902.50;;;2.61;85.26
61039;BME280;46919;45.816;3.104;2024-03-08T00:28:40;96905.38;;;2.66;84.64
61039;BME280;46919;45.816;3.104;2024-03-08T00:31:06;96905.38;;;2.66;84.04
61039;BME280;46919;45.816;3.104;2024-03-08T00:33:32;96892.03;;;2.66;84.80
61039;BME280;46919;45.816;3.104;2024-03-08T00:35:57;96894.69;;;2.66;84.78
61039;BME280;46919;45.816;3.104;2024-03-08T00:38:23;96899.25;;;2.72;84.82
61039;BME280;46919;45.816;3.104;2024-03-08T00:40:48;96896.34;;;2.67;84.65
61039;BME280;46919;45.816;3.104;2024-03-08T00:43:13;96889.16;;;2.61;85.75
61039;BME280;46919;45.816;3.104;2024-03-08T00:45:40;96888.31;;;2.54;86.40
61039;BME280;46919;45.816;3.104;2024-03-08T00:48:08;96887.03;;;2.43;87.52
61039;BME280;46919;45.816;3.104;2024-03-08T00:50:33;96880.00;;;2.35;87.80
61039;BME280;46919;45.816;3.104;2024-03-08T00:52:59;96877.97;;;2.38;88.00
61039;BME280;46919;45.816;3.104;2024-03-08T00:55:25;96879.00;;;2.37;87.35
61039;BME280;46919;45.816;3.104;2024-03-08T00:57:51;96865.88;;;2.35;88.07
61039;BME280;46919;45.816;3.104;2024-03-08T01:00:16;96872.22;;;2.34;88.30
61039;BME280;46919;45.816;3.104;2024-03-08T01:02:42;96872.78;;;2.29;88.26
61039;BME280;46919;45.816;3.104;2024-03-08T01:05:07;96865.41;;;2.31;88.95
61039;BME280;46919;45.816;3.104;2024-03-08T01:07:34;96861.97;;;2.38;88.56
61039;BME280;46919;45.816;3.104;2024-03-08T01:10:02;96863.63;;;2.39;89.23
61039;BME280;46919;45.816;3.104;2024-03-08T01:12:27;96865.06;;;2.41;88.63
61039;BME280;46919;45.816;3.104;2024-03-08T01:14:53;96865.88;;;2.42;88.87
61039;BME280;46919;45.816;3.104;2024-03-08T01:17:18;96856.44;;;2.39;90.00
61039;BME280;46919;45.816;3.104;2024-03-08T01:19:44;96859.69;;;2.34;89.60
61039;BME280;46919;45.816;3.104;2024-03-08T01:22:12;96848.63;;;2.38;88.99
61039;BME280;46919;45.816;3.104;2024-03-08T01:24:37;96843.94;;;2.40;89.47
61039;BME280;46919;45.816;3.104;2024-03-08T01:27:03;96846.56;;;2.33;89.83
61039;BME280;46919;45.816;3.104;2024-03-08T01:29:28;96840.81;;;2.29;90.09
61039;BME280;46919;45.816;3.104;2024-03-08T01:31:55;96835.66;;;2.28;90.44
61039;BME280;46919;45.816;3.104;2024-03-08T01:34:21;96827.28;;;2.38;89.91
61039;BME280;46919;45.816;3.104;2024-03-08T01:36:48;96823.81;;;2.37;90.18
61039;BME280;46919;45.816;3.104;2024-03-08T01:39:13;96818.69;;;2.42;89.88
61039;BME280;46919;45.816;3.104;2024-03-08T01:41:39;96807.63;;;2.39;90.54
61039;BME280;46919;45.816;3.104;2024-03-08T01:44:05;96807.59;;;2.32;91.11
61039;BME280;46919;45.816;3.104;2024-03-08T01:46:33;96806.16;;;2.29;91.65
61039;BME280;46919;45.816;3.104;2024-03-08T01:49:00;96800.00;;;2.29;91.15
61039;BME280;46919;45.816;3.104;2024-03-08T01:51:26;96789.53;;;2.27;90.84
61039;BME280;46919;45.816;3.104;2024-03-08T01:53:54;96790.94;;;2.23;91.51
61039;BME280;46919;45.816;3.104;2024-03-08T01:56:21;96783.34;;;2.20;92.27
61039;BME280;46919;45.816;3.104;2024-03-08T01:58:46;96782.53;;;2.20;92.22
61039;BME280;46919;45.816;3.104;2024-03-08T02:01:13;96777.00;;;2.21;91.90
61039;BME280;46919;45.816;3.104;2024-03-08T02:03:42;96774.38;;;2.34;91.37
61039;BME280;46919;45.816;3.104;2024-03-08T02:06:11;96765.78;;;2.46;91.59
61039;BME280;46919;45.816;3.104;2024-03-08T02:08:36;96759.44;;;2.47;92.08
61039;BME280;46919;45.816;3.104;2024-03-08T02:11:03;96758.03;;;2.51;91.72
61039;BME280;46919;45.816;3.104;2024-03-08T02:13:28;96745.75;;;2.77;91.88
61039;BME280;46919;45.816;3.104;2024-03-08T02:15:55;96740.44;;;3.03;90.62
61039;BME280;46919;45.816;3.104;2024-03-08T02:18:22;96729.31;;;3.40;89.67
61039;BME280;46919;45.816;3.104;2024-03-08T02:20:52;96725.16;;;3.64;89.00
61039;BME280;46919;45.816;3.104;2024-03-08T02:23:20;96729.53;;;4.10;88.05
61039;BME280;46919;45.816;3.104;2024-03-08T02:25:47;96713.22;;;4.18;87.93
61039;BME280;46919;45.816;3.104;2024-03-08T02:28:13;96721.09;;;4.13;88.48
61039;BME280;46919;45.816;3.104;2024-03-08T02:30:39;96722.72;;;4.14;88.88
61039;BME280;46919;45.816;3.104;2024-03-08T02:33:05;96710.97;;;4.15;89.00
61039;BME280;46919;45.816;3.104;2024-03-08T02:35:35;96710.13;;;4.22;88.94
61039;BME280;46919;45.816;3.104;2024-03-08T02:38:01;96710.91;;;4.35;88.96
61039;BME280;46919;45.816;3.104;2024-03-08T02:40:26;96705.44;;;4.56;87.92
61039;BME280;46919;45.816;3.104;2024-03-08T02:42:52;96696.59;;;4.80;87.33
61039;BME280;46919;45.816;3.104;2024-03-08T02:45:18;96688.88;;;4.97;86.13
61039;BME280;46919;45.816;3.104;2024-03-08T02:47:43;96683.56;;;4.90;86.29
61039;BME280;46919;45.816;3.104;2024-03-08T02:50:09;96689.13;;;4.89;86.71
61039;BME280;46919;45.816;3.104;2024-03-08T02:52:34;96682.84;;;5.02;86.00
61039;BME280;46919;45.816;3.104;2024-03-08T02:55:01;96680.91;;;5.09;85.51
61039;BME280;46919;45.816;3.104;2024-03-08T02:57:26;96674.97;;;5.07;85.76
61039;BME280;46919;45.816;3.104;2024-03-08T02:59:53;96670.97;;;5.16;85.25
61039;BME280;46919;45.816;3.104;2024-03-08T03:02:19;96670.53;;;5.19;85.20
61039;BME280;46919;45.816;3.104;2024-03-08T03:04:44;96672.13;;;5.27;84.67
61039;BME280;46919;45.816;3.104;2024-03-08T03:07:10;96671.47;;;5.32;84.32
61039;BME280;46919;45.816;3.104;2024-03-08T03:09:36;96669.44;;;5.27;84.64
61039;BME280;46919;45.816;3.104;2024-03-08T03:12:02;96667.28;;;5.36;84.10
61039;BME280;46919;45.816;3.104;2024-03-08T03:14:28;96667.16;;;5.49;83.39
61039;BME280;46919;45.816;3.104;2024-03-08T03:16:53;96662.72;;;5.61;82.71
61039;BME280;46919;45.816;3.104;2024-03-08T03:19:19;96658.22;;;5.74;81.70
61039;BME280;46919;45.816;3.104;2024-03-08T03:21:45;96653.47;;;5.76;81.87
61039;BME280;46919;45.816;3.104;2024-03-08T03:24:11;96657.53;;;5.78;81.73
61039;BME280;46919;45.816;3.104;2024-03-08T03:26:40;96650.34;;;5.79;81.31
61039;BME280;46919;45.816;3.104;2024-03-08T03:29:06;96649.34;;;5.92;80.78
61039;BME280;46919;45.816;3.104;2024-03-08T03:31:34;96654.22;;;6.02;80.36
61039;BME280;46919;45.816;3.104;2024-03-08T03:33:59;96640.34;;;6.05;80.26
61039;BME280;46919;45.816;3.104;2024-03-08T03:36:28;96644.66;;;6.06;79.95
61039;BME280;46919;45.816;3.104;2024-03-08T03:38:54;96642.28;;;5.97;80.34
61039;BME280;46919;45.816;3.104;2024-03-08T03:41:30;96632.88;;;5.88;80.44
61039;BME280;46919;45.816;3.104;2024-03-08T03:43:56;96634.06;;;5.92;80.27
61039;BME280;46919;45.816;3.104;2024-03-08T03:46:21;96629.53;;;5.93;80.13
61039;BME280;46919;45.816;3.104;2024-03-08T03:48:46;96616.22;;;6.05;79.43
61039;BME280;46919;45.816;3.104;2024-03-08T03:51:12;96608.88;;;6.12;79.03
61039;BME280;46919;45.816;3.104;2024-03-08T03:53:37;96613.19;;;6.13;78.58
61039;BME280;46919;45.816;3.104;2024-03-08T03:56:03;96611.94;;;6.15;78.41
61039;BME280;46919;45.816;3.104;2024-03-08T03:58:32;96606.56;;;6.15;78.46
61039;BME280;46919;45.816;3.104;2024-03-08T04:00:58;96609.84;;;6.18;78.34
61039;BME280;46919;45.816;3.104;2024-03-08T04:03:23;96611.19;;;6.08;78.64
61039;BME280;46919;45.816;3.104;2024-03-08T04:05:48;96606.38;;;5.98;79.03
61039;BME280;46919;45.816;3.104;2024-03-08T04:08:14;96612.63;;;5.92;79.61
61039;BME280;46919;45.816;3.104;2024-03-08T04:10:40;96616.56;;;5.90;79.36
61039;BME280;46919;45.816;3.104;2024-03-08T04:13:07;96619.69;;;5.87;79.67
61039;BME280;46919;45.816;3.104;2024-03-08T04:15:32;96618.31;;;5.84;79.54
61039;BME280;46919;45.816;3.104;2024-03-08T04:17:58;96625.50;;;5.84;79.78
61039;BME280;46919;45.816;3.104;2024-03-08T04:20:25;96611.44;;;5.88;79.60
61039;BME280;46919;45.816;3.104;2024-03-08T04:22:51;96619.22;;;5.96;79.43
61039;BME280;46919;45.816;3.104;2024-03-08T04:25:16;96621.25;;;5.94;79.51
61039;BME280;46919;45.816;3.104;2024-03-08T04:27:42;96627.25;;;5.96;79.80
61039;BME280;46919;45.816;3.104;2024-03-08T04:30:08;96613.66;;;6.10;79.61
61039;BME280;46919;45.816;3.104;2024-03-08T04:32:34;96608.88;;;6.12;79.52
61039;BME280;46919;45.816;3.104;2024-03-08T04:34:59;96607.94;;;6.06;80.20
61039;BME280;46919;45.816;3.104;2024-03-08T04:37:27;96602.34;;;6.08;79.95
61039;BME280;46919;45.816;3.104;2024-03-08T04:39:54;96603.28;;;6.13;79.83
61039;BME280;46919;45.816;3.104;2024-03-08T04:42:20;96602.25;;;6.14;79.80
61039;BME280;46919;45.816;3.104;2024-03-08T04:44:45;96599.91;;;6.18;79.64
61039;BME280;46919;45.816;3.104;2024-03-08T04:47:11;96600.75;;;6.19;79.62
61039;BME280;46919;45.816;3.104;2024-03-08T04:49:36;96594.91;;;6.22;80.20
61039;BME280;46919;45.816;3.104;2024-03-08T04:52:03;96601.22;;;6.27;79.89
61039;BME280;46919;45.816;3.104;2024-03-08T04:54:29;96593.06;;;6.34;79.84
61039;BME280;46919;45.816;3.104;2024-03-08T04:56:55;96591.09;;;6.29;79.86
61039;BME280;46919;45.816;3.104;2024-03-08T04:59:21;96595.88;;;6.27;80.05
61039;BME280;46919;45.816;3.104;2024-03-08T05:01:46;96591.69;;;6.31;80.08
61039;BME280;46919;45.816;3.104;2024-03-08T05:04:13;96594.63;;;6.42;80.18
61039;BME280;46919;45.816;3.104;2024-03-08T05:06:38;96588.22;;;6.43;80.07
61039;BME280;46919;45.816;3.104;2024-03-08T05:09:03;96584.00;;;6.47;79.97
61039;BME280;46919;45.816;3.104;2024-03-08T05:11:47;96587.75;;;6.46;80.01
61039;BME280;46919;45.816;3.104;2024-03-08T05:14:14;96582.50;;;6.51;80.08
61039;BME280;46919;45.816;3.104;2024-03-08T05:16:45;96578.56;;;6.53;80.17
61039;BME280;46919;45.816;3.104;2024-03-08T05:19:15;96581.69;;;6.62;79.81
61039;BME280;46919;45.816;3.104;2024-03-08T05:21:45;96576.78;;;6.59;79.93
61039;BME280;46919;45.816;3.104;2024-03-08T05:24:11;96571.53;;;6.64;79.94
61039;BME280;46919;45.816;3.104;2024-03-08T05:26:37;96574.22;;;6.64;79.93
61039;BME280;46919;45.816;3.104;2024-03-08T05:29:05;96570.50;;;6.77;79.33
61039;BME280;46919;45.816;3.104;2024-03-08T05:31:38;96559.44;;;6.85;78.97
61039;BME280;46919;45.816;3.104;2024-03-08T05:34:07;96566.19;;;6.88;78.72
61039;BME280;46919;45.816;3.104;2024-03-08T05:36:35;96566.19;;;6.88;78.70
61039;BME280;46919;45.816;3.104;2024-03-08T05:39:00;96554.50;;;6.94;78.11
61039;BME280;46919;45.816;3.104;2024-03-08T05:41:26;96564.78;;;6.97;78.33
61039;BME280;46919;45.816;3.104;2024-03-08T05:43:51;96556.03;;;7.02;77.93
61039;BME280;46919;45.816;3.104;2024-03-08T05:46:16;96563.75;;;6.98;78.01
61039;BME280;46919;45.816;3.104;2024-03-08T05:48:43;96559.66;;;6.96;78.33
61039;BME280;46919;45.816;3.104;2024-03-08T05:51:09;96556.81;;;7.02;77.45
61039;BME280;46919;45.816;3.104;2024-03-08T05:53:34;96565.50;;;7.04;77.08
61039;BME280;46919;45.816;3.104;2024-03-08T05:55:59;96561.25;;;7.08;77.23
61039;BME280;46919;45.816;3.104;2024-03-08T05:58:27;96555.19;;;7.13;76.71
61039;BME280;46919;45.816;3.104;2024-03-08T06:00:55;96543.41;;;7.14;76.65
61039;BME280;46919;45.816;3.104;2024-03-08T06:03:21;96547.38;;;7.23;75.86
61039;BME280;46919;45.816;3.104;2024-03-08T06:05:50;96545.59;;;7.29;75.25
61039;BME280;46919;45.816;3.104;2024-03-08T06:08:16;96553.06;;;7.27;75.56
61039;BME280;46919;45.816;3.104;2024-03-08T06:10:41;96546.88;;;7.27;75.58
61039;BME280;46919;45.816;3.104;2024-03-08T06:13:07;96551.56;;;7.31;75.02
61039;BME280;46919;45.816;3.104;2024-03-08T06:15:32;96547.78;;;7.32;75.11
61039;BME280;46919;45.816;3.104;2024-03-08T06:17:58;96542.53;;;7.37;74.60
61039;BME280;46919;45.816;3.104;2024-03-08T06:20:23;96535.19;;;7.33;74.76
61039;BME280;46919;45.816;3.104;2024-03-08T06:22:51;96538.56;;;7.40;74.19
61039;BME280;46919;45.816;3.104;2024-03-08T06:25:17;96527.66;;;7.47;73.90
61039;BME280;46919;45.816;3.104;2024-03-08T06:27:43;96543.47;;;7.43;74.14
61039;BME280;46919;45.816;3.104;2024-03-08T06:30:10;96534.59;;;7.42;73.96
61039;BME280;46919;45.816;3.104;2024-03-08T06:32:36;96531.41;;;7.46;74.02
61039;BME280;46919;45.816;3.104;2024-03-08T06:35:03;96537.03;;;7.44;74.17
61039;BME280;46919;45.816;3.104;2024-03-08T06:37:32;96541.09;;;7.47;73.95
61039;BME280;46919;45.816;3.104;2024-03-08T06:39:57;96534.09;;;7.46;74.25
61039;BME280;46919;45.816;3.104;2024-03-08T06:42:23;96541.94;;;7.47;74.11
61039;BME280;46919;45.816;3.104;2024-03-08T06:44:48;96544.88;;;7.46;74.42
61039;BME280;46919;45.816;3.104;2024-03-08T06:47:17;96538.66;;;7.45;74.59
61039;BME280;46919;45.816;3.104;2024-03-08T06:49:43;96530.81;;;7.43;74.90
61039;BME280;46919;45.816;3.104;2024-03-08T06:52:09;96532.56;;;7.50;74.56
61039;BME280;46919;45.816;3.104;2024-03-08T06:54:35;96524.16;;;7.46;74.71
61039;BME280;46919;45.816;3.104;2024-03-08T06:57:04;96524.03;;;7.53;74.63
61039;BME280;46919;45.816;3.104;2024-03-08T06:59:33;96524.03;;;7.53;74.69
61039;BME280;46919;45.816;3.104;2024-03-08T07:02:01;96527.28;;;7.55;74.20
61039;BME280;46919;45.816;3.104;2024-03-08T07:04:26;96524.47;;;7.61;74.17
61039;BME280;46919;45.816;3.104;2024-03-08T07:06:58;96528.19;;;7.60;74.14
61039;BME280;46919;45.816;3.104;2024-03-08T07:09:26;96517.78;;;7.64;74.00
61039;BME280;46919;45.816;3.104;2024-03-08T07:11:51;96516.25;;;7.68;73.68
61039;BME280;46919;45.816;3.104;2024-03-08T07:14:24;96516.50;;;7.67;73.93
61039;BME280;46919;45.816;3.104;2024-03-08T07:16:50;96510.63;;;7.70;73.96
61039;BME280;46919;45.816;3.104;2024-03-08T07:19:16;96509.44;;;7.77;73.33
61039;BME280;46919;45.816;3.104;2024-03-08T07:21:43;96506.50;;;7.79;73.36
61039;BME280;46919;45.816;3.104;2024-03-08T07:24:09;96509.75;;;7.81;73.40
61039;BME280;46919;45.816;3.104;2024-03-08T07:26:53;96504.72;;;7.85;73.02
61039;BME280;46919;45.816;3.104;2024-03-08T07:29:18;96503.44;;;7.87;73.04
61039;BME280;46919;45.816;3.104;2024-03-08T07:31:44;96516.63;;;7.89;73.08
61039;BME280;46919;45.816;3.104;2024-03-08T07:34:27;96511.00;;;7.90;73.13
61039;BME280;46919;45.816;3.104;2024-03-08T07:36:57;96502.94;;;7.90;73.15
61039;BME280;46919;45.816;3.104;2024-03-08T07:39:22;96498.13;;;7.92;73.22
61039;BME280;46919;45.816;3.104;2024-03-08T07:41:49;96505.72;;;7.95;73.35
61039;BME280;46919;45.816;3.104;2024-03-08T07:44:15;96505.00;;;8.00;73.06
61039;BME280;46919;45.816;3.104;2024-03-08T07:46:41;96513.38;;;8.04;72.91
61039;BME280;46919;45.816;3.104;2024-03-08T07:49:07;96516.16;;;8.09;72.74
61039;BME280;46919;45.816;3.104;2024-03-08T07:51:36;96509.00;;;8.14;72.71
61039;BME280;46919;45.816;3.104;2024-03-08T07:54:02;96509.56;;;8.16;72.57
61039;BME280;46919;45.816;3.104;2024-03-08T07:56:29;96509.19;;;8.25;72.28
61039;BME280;46919;45.816;3.104;2024-03-08T07:58:55;96508.44;;;8.29;72.20
61039;BME280;46919;45.816;3.104;2024-03-08T08:01:21;96513.69;;;8.36;72.12
61039;BME280;46919;45.816;3.104;2024-03-08T08:03:46;96509.56;;;8.45;71.99
61039;BME280;46919;45.816;3.104;2024-03-08T08:06:15;96508.00;;;8.49;71.72
61039;BME280;46919;45.816;3.104;2024-03-08T08:08:44;96508.06;;;8.55;71.30
61039;BME280;46919;45.816;3.104;2024-03-08T08:11:10;96497.38;;;8.60;71.51
61039;BME280;46919;45.816;3.104;2024-03-08T08:13:41;96502.84;;;8.65;70.74
61039;BME280;46919;45.816;3.104;2024-03-08T08:16:08;96512.03;;;8.69;71.37
61039;BME280;46919;45.816;3.104;2024-03-08T08:18:34;96506.25;;;8.77;70.14
61039;BME280;46919;45.816;3.104;2024-03-08T08:21:00;96506.31;;;8.82;70.10
61039;BME280;46919;45.816;3.104;2024-03-08T08:23:26;96503.16;;;8.85;69.47
61039;BME280;46919;45.816;3.104;2024-03-08T08:25:51;96490.53;;;8.91;69.31
61039;BME280;46919;45.816;3.104;2024-03-08T08:28:17;96504.91;;;8.97;69.09
61039;BME280;46919;45.816;3.104;2024-03-08T08:30:44;96496.09;;;9.01;68.54
61039;BME280;46919;45.816;3.104;2024-03-08T08:33:10;96499.66;;;9.07;67.79
61039;BME280;46919;45.816;3.104;2024-03-08T08:35:36;96500.53;;;9.13;67.78
61039;BME280;46919;45.816;3.104;2024-03-08T08:38:03;96498.75;;;9.18;67.51
61039;BME280;46919;45.816;3.104;2024-03-08T08:40:29;96488.50;;;9.20;66.91
61039;BME280;46919;45.816;3.104;2024-03-08T08:42:56;96481.88;;;9.28;66.42
61039;BME280;46919;45.816;3.104;2024-03-08T08:45:25;96484.88;;;9.32;66.32
61039;BME280;46919;45.816;3.104;2024-03-08T08:47:51;96485.50;;;9.39;65.31
61039;BME280;46919;45.816;3.104;2024-03-08T08:50:17;96481.19;;;9.38;65.04
61039;BME280;46919;45.816;3.104;2024-03-08T08:52:48;96478.78;;;9.41;64.91
61039;BME280;46919;45.816;3.104;2024-03-08T08:55:13;96470.50;;;9.48;64.22
61039;BME280;46919;45.816;3.104;2024-03-08T08:57:42;96483.97;;;9.48;64.42
61039;BME280;46919;45.816;3.104;2024-03-08T09:00:08;96482.41;;;9.52;64.10
61039;BME280;46919;45.816;3.104;2024-03-08T09:02:36;96475.47;;;9.56;64.15
61039;BME280;46919;45.816;3.104;2024-03-08T09:05:03;96472.75;;;9.56;63.75
61039;BME280;46919;45.816;3.104;2024-03-08T09:07:28;96465.22;;;9.58;64.22
61039;BME280;46919;45.816;3.104;2024-03-08T09:09:54;96475.50;;;9.61;63.30
61039;BME280;46919;45.816;3.104;2024-03-08T09:12:24;96478.00;;;9.68;63.31
61039;BME280;46919;45.816;3.104;2024-03-08T09:14:49;96473.13;;;9.65;62.92
61039;BME280;46919;45.816;3.104;2024-03-08T09:17:15;96461.59;;;9.75;63.07
61039;BME280;46919;45.816;3.104;2024-03-08T09:19:46;96458.94;;;9.80;62.75
61039;BME280;46919;45.816;3.104;2024-03-08T09:22:13;96462.28;;;9.87;62.33
61039;BME280;46919;45.816;3.104;2024-03-08T09:24:38;96453.72;;;9.95;62.54
61039;BME280;46919;45.816;3.104;2024-03-08T09:27:04;96458.63;;;10.04;61.83
61039;BME280;46919;45.816;3.104;2024-03-08T09:29:29;96451.66;;;10.08;61.80
61039;BME280;46919;45.816;3.104;2024-03-08T09:31:55;96445.75;;;10.11;60.87
61039;BME280;46919;45.816;3.104;2024-03-08T09:34:21;96440.59;;;10.09;59.84
61039;BME280;46919;45.816;3.104;2024-03-08T09:36:46;96441.50;;;10.20;60.45
61039;BME280;46919;45.816;3.104;2024-03-08T09:39:12;96430.56;;;10.37;59.98
61039;BME280;46919;45.816;3.104;2024-03-08T09:41:43;96423.97;;;10.55;59.44
61039;BME280;46919;45.816;3.104;2024-03-08T09:44:09;96422.66;;;10.63;58.78
61039;BME280;46919;45.816;3.104;2024-03-08T09:46:34;96417.56;;;10.72;58.97
61039;BME280;46919;45.816;3.104;2024-03-08T09:49:00;96414.41;;;10.85;58.44
61039;BME280;46919;45.816;3.104;2024-03-08T09:51:30;96404.94;;;10.82;57.78
61039;BME280;46919;45.816;3.104;2024-03-08T09:53:58;96413.31;;;10.91;57.85
61039;BME280;46919;45.816;3.104;2024-03-08T09:56:24;96406.13;;;11.07;57.04
61039;BME280;46919;45.816;3.104;2024-03-08T09:58:50;96402.06;;;11.15;55.62
61039;BME280;46919;45.816;3.104;2024-03-08T10:01:31;96399.16;;;11.27;55.19
61039;BME280;46919;45.816;3.104;2024-03-08T10:03:57;96395.13;;;11.39;55.53
61039;BME280;46919;45.816;3.104;2024-03-08T10:06:23;96387.03;;;11.50;54.67
61039;BME280;46919;45.816;3.104;2024-03-08T10:08:49;96374.28;;;11.35;54.36
61039;BME280;46919;45.816;3.104;2024-03-08T10:11:17;96366.19;;;11.35;54.00
61039;BME280;46919;45.816;3.104;2024-03-08T10:13:44;96356.22;;;11.61;53.92
61039;BME280;46919;45.816;3.104;2024-03-08T10:16:12;96349.72;;;11.77;53.50
61039;BME280;46919;45.816;3.104;2024-03-08T10:18:37;96357.56;;;11.89;53.73
61039;BME280;46919;45.816;3.104;2024-03-08T10:21:05;96361.91;;;11.59;52.91
61039;BME280;46919;45.816;3.104;2024-03-08T10:23:31;96355.41;;;11.55;53.48
61039;BME280;46919;45.816;3.104;2024-03-08T10:28:40;96334.56;;;11.40;52.58
61039;BME280;46919;45.816;3.104;2024-03-08T10:31:06;96327.78;;;11.33;51.93
61039;BME280;46919;45.816;3.104;2024-03-08T10:33:32;96337.78;;;11.48;51.69
61039;BME280;46919;45.816;3.104;2024-03-08T10:35:58;96333.47;;;11.67;51.20
61039;BME280;46919;45.816;3.104;2024-03-08T10:38:26;96335.63;;;11.39;51.42
61039;BME280;46919;45.816;3.104;2024-03-08T10:40:52;96336.91;;;11.11;51.75
61039;BME280;46919;45.816;3.104;2024-03-08T10:43:23;96346.88;;;10.95;52.15
61039;BME280;46919;45.816;3.104;2024-03-08T10:48:48;96328.16;;;10.78;51.80
61039;BME280;46919;45.816;3.104;2024-03-08T10:51:15;96326.38;;;11.10;52.11
61039;BME280;46919;45.816;3.104;2024-03-08T10:53:41;96324.78;;;11.24;51.09
61039;BME280;46919;45.816;3.104;2024-03-08T10:56:07;96319.91;;;11.21;51.60
61039;BME280;46919;45.816;3.104;2024-03-08T10:58:35;96316.97;;;11.28;51.85
61039;BME280;46919;45.816;3.104;2024-03-08T11:01:02;96306.41;;;11.26;50.73
61039;BME280;46919;45.816;3.104;2024-03-08T11:08:40;96293.13;;;11.04;51.35
61039;BME280;46919;45.816;3.104;2024-03-08T11:11:26;96296.63;;;10.99;51.19
61039;BME280;46919;45.816;3.104;2024-03-08T11:13:59;96310.63;;;10.86;51.42
61039;BME280;46919;45.816;3.104;2024-03-08T11:18:53;96325.97;;;10.75;51.49
61039;BME280;46919;45.816;3.104;2024-03-08T11:21:19;96332.72;;;10.67;51.56
61039;BME280;46919;45.816;3.104;2024-03-08T11:24:02;96325.13;;;10.64;51.46
61039;BME280;46919;45.816;3.104;2024-03-08T11:26:31;96332.38;;;10.54;51.92
61039;BME280;46919;45.816;3.104;2024-03-08T11:31:50;96318.00;;;10.38;51.77
61039;BME280;46919;45.816;3.104;2024-03-08T11:34:16;96319.66;;;10.49;51.38
61039;BME280;46919;45.816;3.104;2024-03-08T11:36:42;96315.94;;;10.60;51.00
61039;BME280;46919;45.816;3.104;2024-03-08T11:39:07;96302.16;;;10.67;51.04
61039;BME280;46919;45.816;3.104;2024-03-08T11:41:39;96305.97;;;10.71;51.05
61039;BME280;46919;45.816;3.104;2024-03-08T11:44:07;96285.94;;;10.62;50.38
61039;BME280;46919;45.816;3.104;2024-03-08T11:46:35;96310.25;;;10.57;50.24
61039;BME280;46919;45.816;3.104;2024-03-08T11:49:00;96316.94;;;10.44;50.39
61039;BME280;46919;45.816;3.104;2024-03-08T11:51:26;96314.72;;;10.36;50.43
61039;BME280;46919;45.816;3.104;2024-03-08T11:53:52;96311.50;;;10.39;49.67
61039;BME280;46919;45.816;3.104;2024-03-08T11:56:17;96311.97;;;10.30;49.62
61039;BME280;46919;45.816;3.104;2024-03-08T11:58:56;96295.47;;;10.22;50.01
61039;BME280;46919;45.816;3.104;2024-03-08T12:01:23;96302.69;;;10.16;49.71
61039;BME280;46919;45.816;3.104;2024-03-08T12:03:56;96299.47;;;10.14;49.91
61039;BME280;46919;45.816;3.104;2024-03-08T12:06:25;96282.72;;;10.12;50.29
61039;BME280;46919;45.816;3.104;2024-03-08T12:08:52;96293.81;;;10.15;49.17
61039;BME280;46919;45.816;3.104;2024-03-08T12:11:19;96288.69;;;10.19;49.29
61039;BME280;46919;45.816;3.104;2024-03-08T12:13:48;96288.69;;;10.19;49.44
61039;BME280;46919;45.816;3.104;2024-03-08T12:16:19;96294.38;;;10.23;49.50
61039;BME280;46919;45.816;3.104;2024-03-08T12:18:46;96297.63;;;10.25;50.37
61039;BME280;46919;45.816;3.104;2024-03-08T12:21:13;96305.47;;;10.26;50.46
61039;BME280;46919;45.816;3.104;2024-03-08T12:23:42;96295.72;;;10.20;50.83
61039;BME280;46919;45.816;3.104;2024-03-08T12:26:14;96288.94;;;10.12;51.03
61039;BME280;46919;45.816;3.104;2024-03-08T12:28:41;96290.22;;;10.05;51.09
61039;BME280;46919;45.816;3.104;2024-03-08T12:31:08;96283.69;;;9.95;51.93
61039;BME280;46919;45.816;3.104;2024-03-08T12:33:53;96283.94;;;9.94;52.20
61039;BME280;46919;45.816;3.104;2024-03-08T12:36:20;96286.66;;;9.94;52.44
61039;BME280;46919;45.816;3.104;2024-03-08T12:38:46;96275.03;;;9.93;52.51
61039;BME280;46919;45.816;3.104;2024-03-08T12:41:18;96269.94;;;9.97;52.63
61039;BME280;46919;45.816;3.104;2024-03-08T12:43:45;96266.97;;;9.98;52.35
61039;BME280;46919;45.816;3.104;2024-03-08T12:46:15;96264.78;;;9.90;52.43
61039;BME280;46919;45.816;3.104;2024-03-08T12:48:41;96257.72;;;9.84;52.36
61039;BME280;46919;45.816;3.104;2024-03-08T12:51:07;96249.06;;;9.77;52.38
61039;BME280;46919;45.816;3.104;2024-03-08T12:53:33;96252.78;;;9.71;52.16
61039;BME280;46919;45.816;3.104;2024-03-08T12:55:58;96240.88;;;9.67;52.58
61039;BME280;46919;45.816;3.104;2024-03-08T12:58:24;96239.81;;;9.68;52.52
61039;BME280;46919;45.816;3.104;2024-03-08T13:00:51;96246.28;;;9.67;52.90
61039;BME280;46919;45.816;3.104;2024-03-08T13:03:16;96236.84;;;9.69;53.08
61039;BME280;46919;45.816;3.104;2024-03-08T13:05:42;96235.81;;;9.75;52.56
61039;BME280;46919;45.816;3.104;2024-03-08T13:08:08;96234.97;;;9.75;52.58
61039;BME280;46919;45.816;3.104;2024-03-08T13:10:41;96233.38;;;9.74;52.95
61039;BME280;46919;45.816;3.104;2024-03-08T13:13:12;96224.72;;;9.72;52.99
61039;BME280;46919;45.816;3.104;2024-03-08T13:15:40;96229.31;;;9.71;52.69
61039;BME280;46919;45.816;3.104;2024-03-08T13:18:06;96233.84;;;9.66;53.28
61039;BME280;46919;45.816;3.104;2024-03-08T13:20:34;96224.16;;;9.65;52.87
61039;BME280;46919;45.816;3.104;2024-03-08T13:23:02;96224.16;;;9.65;52.78